Time;durP1;ratioP1;P1;durP2;ratioP2;P2;SDS_P1;SDS_P2;PMS_P1;PMS_P2;Temp;Humidity;BMP_temperature;BMP_pressure;BME280_temperature;BME280_humidity;BME280_pressure;Samples;Min_cycle;Max_cycle;Signal;HPM_P1;HPM_P2
2022/08/15 00:00:33;;;;;;;10.52;9.40;;;22.70;99.90;;;;;;5093797;27;20108;-65
2022/08/15 00:03:03;;;;;;;10.55;9.52;;;22.70;99.90;;;;;;5100204;27;20050;-65
2022/08/15 00:05:38;;;;;;;11.82;10.25;;;22.70;99.90;;;;;;5096308;27;20535;-65
2022/08/15 00:08:09;;;;;;;10.23;9.23;;;22.70;99.90;;;;;;5093842;27;20383;-65
2022/08/15 00:11:07;;;;;;;11.40;10.30;;;22.80;99.90;;;;;;5108155;27;20108;-65
2022/08/15 00:13:53;;;;;;;11.10;10.00;;;22.80;99.90;;;;;;5093575;27;20513;-64
2022/08/15 00:16:33;;;;;;;10.53;9.53;;;22.80;99.90;;;;;;5098550;27;20450;-64
2022/08/15 00:19:06;;;;;;;12.23;9.70;;;22.90;99.90;;;;;;5100660;27;20489;-65
2022/08/15 00:21:38;;;;;;;10.30;9.30;;;22.90;99.90;;;;;;5105813;27;20123;-65
2022/08/15 00:24:08;;;;;;;11.35;10.23;;;23.00;99.90;;;;;;5093153;27;20075;-65
2022/08/15 00:26:48;;;;;;;11.23;10.02;;;23.00;99.90;;;;;;5099933;27;20077;-68
2022/08/15 00:29:25;;;;;;;11.25;10.13;;;23.00;99.90;;;;;;5112863;27;20514;-65
2022/08/15 00:32:10;;;;;;;10.60;9.60;;;23.00;99.90;;;;;;5094455;28;20086;-65
2022/08/15 00:34:57;;;;;;;10.85;9.70;;;23.00;99.90;;;;;;5109650;28;20414;-65
2022/08/15 00:37:25;;;;;;;10.27;9.32;;;23.00;99.90;;;;;;5115264;27;20093;-64
2022/08/15 00:39:53;;;;;;;9.90;9.00;;;23.00;99.90;;;;;;5117002;27;20576;-65
2022/08/15 00:42:24;;;;;;;11.65;9.77;;;22.90;99.90;;;;;;5108469;28;20066;-65
2022/08/15 00:44:58;;;;;;;11.07;10.07;;;23.00;99.90;;;;;;5121659;27;20449;-65
2022/08/15 00:47:40;;;;;;;10.68;9.70;;;23.00;99.90;;;;;;5109797;28;20122;-65
2022/08/15 00:50:13;;;;;;;10.52;9.52;;;23.00;99.90;;;;;;5105338;27;20473;-65
2022/08/15 00:53:08;;;;;;;10.70;9.70;;;22.90;99.90;;;;;;5080129;28;20043;-65
2022/08/15 00:55:40;;;;;;;10.73;9.73;;;22.90;99.90;;;;;;5109215;27;20090;-65
2022/08/15 00:58:09;;;;;;;10.32;9.43;;;22.90;99.90;;;;;;5109419;28;20516;-66
2022/08/15 01:00:57;;;;;;;11.20;9.20;;;22.90;99.90;;;;;;5128517;27;20052;-66
2022/08/15 01:03:32;;;;;;;11.25;10.25;;;22.90;99.90;;;;;;5129857;27;20561;-66
2022/08/15 01:06:21;;;;;;;10.63;9.68;;;22.90;99.90;;;;;;5101794;27;20055;-66
2022/08/15 01:08:57;;;;;;;11.02;10.02;;;22.80;99.90;;;;;;5114604;27;20051;-66
2022/08/15 01:11:31;;;;;;;11.23;10.23;;;22.80;99.90;;;;;;5114749;27;20401;-66
2022/08/15 01:14:06;;;;;;;11.40;10.20;;;22.80;99.90;;;;;;5115358;27;20123;-66
2022/08/15 01:16:54;;;;;;;10.82;9.93;;;22.80;99.90;;;;;;5117953;27;20031;-66
2022/08/15 01:19:27;;;;;;;11.57;10.40;;;22.80;99.90;;;;;;5108660;27;20027;-66
2022/08/15 01:22:10;;;;;;;11.35;10.18;;;22.80;99.90;;;;;;5120272;27;20118;-66
2022/08/15 01:24:58;;;;;;;11.00;10.00;;;22.80;99.90;;;;;;5112425;27;20032;-66
2022/08/15 01:27:55;;;;;;;10.27;9.38;;;22.80;99.90;;;;;;5105302;27;20035;-66
2022/08/15 01:30:28;;;;;;;10.43;9.43;;;22.80;99.90;;;;;;5102055;27;20523;-66
2022/08/15 01:33:16;;;;;;;11.40;9.80;;;22.80;99.90;;;;;;5113780;27;20055;-66
2022/08/15 01:35:46;;;;;;;11.73;10.57;;;22.80;99.90;;;;;;5107372;28;20515;-66
2022/08/15 01:38:37;;;;;;;10.70;9.70;;;22.70;99.90;;;;;;5121193;27;20046;-66
2022/08/15 01:41:31;;;;;;;11.13;9.95;;;22.60;99.90;;;;;;5098881;28;20039;-66
2022/08/15 01:44:12;;;;;;;11.00;10.10;;;22.60;99.90;;;;;;5096505;27;20077;-66
2022/08/15 01:47:06;;;;;;;12.07;9.90;;;22.60;99.90;;;;;;5112126;27;20060;-66
2022/08/15 01:49:47;;;;;;;11.63;10.43;;;22.60;99.90;;;;;;5117030;27;20050;-66
2022/08/15 01:52:34;;;;;;;11.75;10.65;;;22.50;99.90;;;;;;5122510;27;20040;-66
2022/08/15 01:55:30;;;;;;;13.23;10.68;;;22.50;99.90;;;;;;5098452;27;20063;-66
2022/08/15 01:58:06;;;;;;;11.27;10.25;;;22.40;99.90;;;;;;5110106;27;20413;-65
2022/08/15 02:00:37;;;;;;;11.20;10.20;;;22.50;99.90;;;;;;5123397;27;20043;-66
2022/08/15 02:03:09;;;;;;;13.27;10.40;;;22.50;99.90;;;;;;5126010;27;20066;-66
2022/08/15 02:05:39;;;;;;;10.93;9.82;;;22.50;99.90;;;;;;5108905;27;20091;-66
2022/08/15 02:08:06;;;;;;;11.57;10.43;;;22.50;99.90;;;;;;5095283;27;20043;-66
2022/08/15 02:10:53;;;;;;;11.23;10.23;;;22.50;99.90;;;;;;5109951;27;20561;-66
2022/08/15 02:13:21;;;;;;;11.65;10.45;;;22.50;99.90;;;;;;5106943;27;20048;-66
2022/08/15 02:15:51;;;;;;;11.95;10.80;;;22.40;99.90;;;;;;5114462;27;20035;-66
2022/08/15 02:18:19;;;;;;;10.90;9.85;;;22.40;99.90;;;;;;5118961;27;20031;-66
2022/08/15 02:20:51;;;;;;;12.02;10.93;;;22.30;99.90;;;;;;5104104;27;20074;-66
2022/08/15 02:23:19;;;;;;;11.77;10.65;;;22.30;99.90;;;;;;5105023;27;20405;-66
2022/08/15 02:25:51;;;;;;;10.90;9.90;;;22.30;99.90;;;;;;5123160;27;20496;-66
2022/08/15 02:28:22;;;;;;;11.23;10.23;;;22.20;99.90;;;;;;5098001;28;20457;-66
2022/08/15 02:31:10;;;;;;;12.10;10.77;;;22.20;99.90;;;;;;5126042;28;20523;-66
2022/08/15 02:33:41;;;;;;;11.77;10.63;;;22.10;99.90;;;;;;5117638;28;20043;-66
2022/08/15 02:36:16;;;;;;;13.05;11.10;;;22.10;99.90;;;;;;5098410;28;20049;-66
2022/08/15 02:39:07;;;;;;;11.95;10.85;;;22.10;99.90;;;;;;5107710;28;20338;-66
2022/08/15 02:41:40;;;;;;;11.82;10.75;;;22.00;99.90;;;;;;5091802;28;20040;-66
2022/08/15 02:44:13;;;;;;;12.38;11.18;;;22.00;99.90;;;;;;5102753;27;20565;-66
2022/08/15 02:46:58;;;;;;;12.40;11.20;;;21.90;99.90;;;;;;5111162;28;20035;-66
2022/08/15 02:49:36;;;;;;;12.75;11.55;;;21.90;99.90;;;;;;5115390;28;20043;-66
2022/08/15 02:52:18;;;;;;;13.50;12.10;;;21.90;99.90;;;;;;5090772;28;20509;-66
2022/08/15 02:54:49;;;;;;;14.27;12.82;;;21.90;99.90;;;;;;5099684;28;20047;-66
2022/08/15 02:57:31;;;;;;;13.00;11.80;;;21.80;99.90;;;;;;5104245;28;20039;-65
2022/08/15 03:00:20;;;;;;;13.88;12.45;;;21.80;99.90;;;;;;5103775;28;20071;-66
2022/08/15 03:02:58;;;;;;;13.00;11.70;;;21.70;99.90;;;;;;5096628;28;20634;-66
2022/08/15 03:05:31;;;;;;;12.80;11.60;;;21.70;99.90;;;;;;5094454;28;20067;-65
2022/08/15 03:07:59;;;;;;;13.73;12.43;;;21.70;99.90;;;;;;5072784;28;20044;-66
2022/08/15 03:10:28;;;;;;;13.05;11.80;;;21.70;99.90;;;;;;5085328;28;20097;-66
2022/08/15 03:13:09;;;;;;;12.33;11.20;;;21.70;99.90;;;;;;5106372;28;20122;-66
2022/08/15 03:15:52;;;;;;;12.68;11.48;;;21.60;99.90;;;;;;5112541;27;20304;-66
2022/08/15 03:18:32;;;;;;;13.80;12.50;;;21.60;99.90;;;;;;5114566;28;20458;-66
2022/08/15 03:21:09;;;;;;;14.13;12.73;;;21.60;99.90;;;;;;5116081;28;20255;-66
2022/08/15 03:23:38;;;;;;;13.13;11.77;;;21.60;99.90;;;;;;5121887;28;20062;-65
2022/08/15 03:26:12;;;;;;;13.13;11.65;;;21.60;99.90;;;;;;5111580;27;20518;-66
2022/08/15 03:29:02;;;;;;;13.38;12.00;;;21.60;99.90;;;;;;5111828;28;20039;-67
2022/08/15 03:31:35;;;;;;;13.20;11.90;;;21.60;99.90;;;;;;5123853;28;20058;-65
2022/08/15 03:34:15;;;;;;;13.00;11.75;;;21.60;99.90;;;;;;5105252;28;20432;-66
2022/08/15 03:36:46;;;;;;;13.02;11.73;;;21.60;99.90;;;;;;5079510;28;20043;-66
2022/08/15 03:39:21;;;;;;;13.32;12.07;;;21.60;99.90;;;;;;5105076;27;20494;-66
2022/08/15 03:41:51;;;;;;;13.15;11.93;;;21.60;99.90;;;;;;5114073;27;20104;-66
2022/08/15 03:44:20;;;;;;;13.23;11.90;;;21.60;99.90;;;;;;5105928;27;20043;-66
2022/08/15 03:46:55;;;;;;;12.88;11.55;;;21.60;99.90;;;;;;5093617;27;20054;-66
2022/08/15 03:49:25;;;;;;;13.25;11.82;;;21.60;99.90;;;;;;5113185;27;20513;-66
2022/08/15 03:52:13;;;;;;;13.40;12.05;;;21.70;99.90;;;;;;5115917;27;20044;-66
2022/08/15 03:54:42;;;;;;;14.95;13.32;;;21.70;99.90;;;;;;5113556;27;20036;-66
2022/08/15 03:57:17;;;;;;;13.55;12.15;;;21.70;99.90;;;;;;5122188;27;20180;-66
2022/08/15 03:59:49;;;;;;;16.40;12.93;;;21.70;99.90;;;;;;5127054;27;20114;-66
2022/08/15 04:02:24;;;;;;;12.98;11.77;;;21.80;99.90;;;;;;5095915;27;20048;-66
2022/08/15 04:04:57;;;;;;;15.20;13.05;;;21.70;99.90;;;;;;5092268;28;20532;-66
2022/08/15 04:07:28;;;;;;;12.73;11.52;;;21.80;99.90;;;;;;5103675;27;20490;-66
2022/08/15 04:10:19;;;;;;;12.90;11.60;;;21.80;99.90;;;;;;5112939;27;20035;-66
2022/08/15 04:13:07;;;;;;;13.75;12.02;;;21.80;99.90;;;;;;5104198;27;20374;-66
2022/08/15 04:15:37;;;;;;;15.63;12.35;;;21.90;99.90;;;;;;5107258;27;20150;-66
2022/08/15 04:18:05;;;;;;;14.95;13.38;;;21.90;99.90;;;;;;5103793;27;20044;-66
2022/08/15 04:21:03;;;;;;;16.92;13.65;;;21.90;99.90;;;;;;5105493;27;20126;-66
2022/08/15 04:23:31;;;;;;;14.45;12.88;;;21.90;99.90;;;;;;5111311;27;20043;-66
2022/08/15 04:26:01;;;;;;;14.45;13.05;;;21.90;99.90;;;;;;5119212;27;20467;-66
2022/08/15 04:28:34;;;;;;;13.88;12.35;;;21.90;99.90;;;;;;5127931;27;20130;-66
2022/08/15 04:31:23;;;;;;;13.65;12.30;;;21.90;99.90;;;;;;5098146;28;20044;-66
2022/08/15 04:33:50;;;;;;;13.50;12.10;;;21.90;99.90;;;;;;5122763;27;20106;-66
2022/08/15 04:36:39;;;;;;;14.60;12.80;;;21.90;99.90;;;;;;5100408;27;20040;-66
2022/08/15 04:39:08;;;;;;;12.95;11.60;;;21.90;99.90;;;;;;5117894;27;20040;-66
2022/08/15 04:42:05;;;;;;;13.63;11.52;;;21.80;99.90;;;;;;5099962;27;20047;-66
2022/08/15 04:44:32;;;;;;;13.20;11.90;;;21.90;99.90;;;;;;5108330;27;20506;-66
2022/08/15 04:47:00;;;;;;;12.43;11.13;;;21.80;99.90;;;;;;5095530;27;20059;-67
2022/08/15 04:49:29;;;;;;;12.85;11.55;;;21.90;99.90;;;;;;5115271;27;20097;-64
2022/08/15 04:52:13;;;;;;;12.60;11.27;;;21.90;99.90;;;;;;5112106;27;20414;-65
2022/08/15 04:54:45;;;;;;;12.27;10.90;;;21.90;99.90;;;;;;5116651;27;20497;-64
2022/08/15 04:57:31;;;;;;;11.68;10.48;;;21.90;99.90;;;;;;5122663;27;20394;-67
2022/08/15 04:59:59;;;;;;;11.35;10.23;;;21.90;99.90;;;;;;5119346;27;21682;-67
2022/08/15 05:03:03;;;;;;;15.27;10.55;;;22.00;99.90;;;;;;5059392;27;20040;-67
2022/08/15 05:05:36;;;;;;;13.27;10.23;;;22.00;99.90;;;;;;5090726;27;20043;-68
2022/08/15 05:08:07;;;;;;;12.85;10.18;;;22.00;99.90;;;;;;5108452;27;20096;-67
2022/08/15 05:10:45;;;;;;;14.35;9.73;;;22.00;99.90;;;;;;5078545;27;20626;-66
2022/08/15 05:13:19;;;;;;;13.52;10.40;;;22.20;99.90;;;;;;5098432;27;20510;-67
2022/08/15 05:15:48;;;;;;;10.93;9.88;;;22.20;99.90;;;;;;5099281;27;20093;-64
2022/08/15 05:18:30;;;;;;;11.70;10.50;;;22.20;99.90;;;;;;5112697;27;20049;-67
2022/08/15 05:20:58;;;;;;;10.65;9.65;;;22.20;99.90;;;;;;5072356;27;20498;-66
2022/08/15 05:23:29;;;;;;;13.75;10.52;;;22.20;99.90;;;;;;5114542;27;20484;-66
2022/08/15 05:26:19;;;;;;;12.85;10.30;;;22.20;99.90;;;;;;5099898;27;20118;-65
2022/08/15 05:29:07;;;;;;;11.95;9.63;;;22.30;99.90;;;;;;5116889;27;20035;-65
2022/08/15 05:31:35;;;;;;;12.75;9.43;;;22.40;99.90;;;;;;5108324;27;20058;-66
2022/08/15 05:34:08;;;;;;;12.45;9.82;;;22.40;99.90;;;;;;5103967;28;20481;-64
2022/08/15 05:36:53;;;;;;;11.45;8.95;;;22.50;99.90;;;;;;5096467;27;20043;-65
2022/08/15 05:39:28;;;;;;;11.75;10.00;;;22.50;99.90;;;;;;5109737;27;20439;-67
2022/08/15 05:42:11;;;;;;;10.07;8.93;;;22.50;99.90;;;;;;5115251;27;20327;-65
2022/08/15 05:45:15;;;;;;;10.20;9.10;;;22.40;99.90;;;;;;5109759;27;20043;-66
2022/08/15 05:47:56;;;;;;;15.50;9.35;;;22.50;99.90;;;;;;5086623;27;20056;-65
2022/08/15 05:50:32;;;;;;;11.13;9.32;;;22.50;99.90;;;;;;5083823;28;20047;-66
2022/08/15 05:53:09;;;;;;;12.95;9.43;;;22.70;99.90;;;;;;5105497;27;20505;-66
2022/08/15 05:55:56;;;;;;;10.07;8.80;;;22.70;99.90;;;;;;5120390;27;20561;-66
2022/08/15 05:58:47;;;;;;;11.77;9.70;;;22.60;99.90;;;;;;5109181;27;20043;-65
2022/08/15 06:01:39;;;;;;;11.75;8.93;;;22.70;99.90;;;;;;5118397;27;20040;-66
2022/08/15 06:04:20;;;;;;;10.80;8.80;;;22.70;99.90;;;;;;5103654;28;20032;-65
2022/08/15 06:07:05;;;;;;;13.30;8.88;;;22.70;99.90;;;;;;5098927;28;20087;-65
2022/08/15 06:09:55;;;;;;;10.95;9.05;;;22.80;99.90;;;;;;5103631;28;20063;-64
2022/08/15 06:12:38;;;;;;;13.45;8.48;;;22.80;99.90;;;;;;5102367;28;20505;-63
2022/08/15 06:15:17;;;;;;;9.52;8.45;;;22.80;99.90;;;;;;5113214;27;20039;-65
2022/08/15 06:18:01;;;;;;;11.50;8.25;;;22.80;99.90;;;;;;5103632;27;20039;-64
2022/08/15 06:20:53;;;;;;;10.25;8.63;;;22.80;99.90;;;;;;5105534;27;20122;-66
2022/08/15 06:24:02;;;;;;;9.88;8.88;;;22.80;99.90;;;;;;5081489;28;20050;-65
2022/08/15 06:26:52;;;;;;;12.38;9.13;;;22.80;99.90;;;;;;5101909;27;20043;-65
2022/08/15 06:29:47;;;;;;;9.43;8.52;;;22.80;99.90;;;;;;5103842;28;20105;-64
2022/08/15 06:32:25;;;;;;;11.65;9.40;;;22.80;99.90;;;;;;5105123;28;20040;-65
2022/08/15 06:35:17;;;;;;;13.25;8.70;;;23.00;99.90;;;;;;5109648;28;20525;-64
2022/08/15 06:38:27;;;;;;;10.25;8.45;;;23.10;99.90;;;;;;5100432;28;20067;-64
2022/08/15 06:41:19;;;;;;;14.52;8.57;;;23.10;99.90;;;;;;5101681;28;20050;-63
2022/08/15 06:43:56;;;;;;;13.45;8.35;;;23.10;99.90;;;;;;5090947;28;20040;-64
2022/08/15 06:46:34;;;;;;;12.55;8.65;;;23.10;99.90;;;;;;5073634;28;20048;-64
2022/08/15 06:49:20;;;;;;;10.93;8.23;;;22.90;99.90;;;;;;5093382;28;20085;-65
2022/08/15 06:51:51;;;;;;;12.35;8.73;;;22.70;99.90;;;;;;5101490;28;20075;-64
2022/08/15 06:54:28;;;;;;;9.10;8.13;;;22.60;99.90;;;;;;5105414;28;20043;-65
2022/08/15 06:57:35;;;;;;;12.98;8.10;;;22.50;99.90;;;;;;5106993;27;20560;-65
2022/08/15 07:00:39;;;;;;;12.05;8.45;;;22.50;99.90;;;;;;5087266;28;20493;-65
2022/08/15 07:03:34;;;;;;;12.70;8.15;;;22.40;99.90;;;;;;5057738;28;20127;-65
2022/08/15 07:06:14;;;;;;;9.93;7.88;;;22.40;99.90;;;;;;5046196;28;20052;-64
2022/08/15 07:08:57;;;;;;;8.43;7.53;;;22.40;99.90;;;;;;5047736;28;20056;-64
2022/08/15 07:11:37;;;;;;;10.57;8.13;;;22.50;99.90;;;;;;5054239;28;20088;-64
2022/08/15 07:14:35;;;;;;;8.27;7.47;;;22.50;99.90;;;;;;5046510;28;20440;-64
2022/08/15 07:17:12;;;;;;;10.27;8.32;;;22.40;99.90;;;;;;5048992;28;20150;-64
2022/08/15 07:19:44;;;;;;;9.50;8.52;;;22.50;99.90;;;;;;5033267;28;20474;-64
2022/08/15 07:22:43;;;;;;;11.00;8.05;;;22.60;99.90;;;;;;5066339;28;20113;-64
2022/08/15 07:25:24;;;;;;;11.60;8.02;;;22.70;99.90;;;;;;5051564;28;20417;-65
2022/08/15 07:28:03;;;;;;;11.32;8.68;;;22.80;99.90;;;;;;5049978;28;20120;-65
2022/08/15 07:30:51;;;;;;;10.40;8.27;;;22.90;99.90;;;;;;5051110;28;20056;-66
2022/08/15 07:33:49;;;;;;;12.00;8.63;;;22.90;99.90;;;;;;5050859;28;20048;-64
2022/08/15 07:36:29;;;;;;;10.57;8.30;;;22.90;99.90;;;;;;5059666;28;20081;-64
2022/08/15 07:39:39;;;;;;;9.50;8.30;;;23.10;99.90;;;;;;5110006;28;20071;-64
2022/08/15 07:42:20;;;;;;;11.38;8.60;;;23.00;99.90;;;;;;5111678;27;20042;-64
2022/08/15 07:45:20;;;;;;;8.27;7.43;;;23.10;99.90;;;;;;5109674;27;20501;-65
2022/08/15 07:48:02;;;;;;;10.80;8.48;;;23.10;99.90;;;;;;5112573;27;20043;-64
2022/08/15 07:50:41;;;;;;;11.65;7.80;;;23.10;99.90;;;;;;5097418;27;20070;-65
2022/08/15 07:53:21;;;;;;;10.45;7.88;;;23.20;99.90;;;;;;5101716;27;20501;-64
2022/08/15 07:56:06;;;;;;;10.45;7.65;;;23.30;99.90;;;;;;5118525;27;20031;-64
2022/08/15 07:59:13;;;;;;;9.23;7.25;;;23.50;99.90;;;;;;5114253;27;20035;-63
2022/08/15 08:02:25;;;;;;;8.55;7.75;;;23.80;99.90;;;;;;5121762;27;20051;-65
2022/08/15 08:05:07;;;;;;;10.02;8.00;;;24.00;99.90;;;;;;5086995;27;20502;-64
2022/08/15 08:07:44;;;;;;;12.27;7.32;;;24.10;99.90;;;;;;5120478;27;20039;-65
2022/08/15 08:10:44;;;;;;;13.00;7.80;;;24.10;99.90;;;;;;5126851;27;20047;-63
2022/08/15 08:13:40;;;;;;;9.15;7.82;;;24.30;99.90;;;;;;5114681;27;20107;-65
2022/08/15 08:16:29;;;;;;;12.25;7.90;;;24.40;99.90;;;;;;5128643;27;20117;-65
2022/08/15 08:19:06;;;;;;;11.55;7.90;;;24.50;99.90;;;;;;5115228;27;20135;-65
2022/08/15 08:22:20;;;;;;;9.18;8.27;;;24.50;99.90;;;;;;5103831;27;20515;-65
2022/08/15 08:25:07;;;;;;;12.15;8.10;;;24.70;99.90;;;;;;5107410;27;20120;-66
2022/08/15 08:28:07;;;;;;;9.50;8.38;;;25.00;99.90;;;;;;5102972;27;20043;-66
2022/08/15 08:30:50;;;;;;;9.13;7.65;;;25.10;99.90;;;;;;5107783;27;20080;-65
2022/08/15 08:33:37;;;;;;;10.27;7.80;;;25.30;99.90;;;;;;5101352;27;20044;-65
2022/08/15 08:36:31;;;;;;;8.90;7.95;;;25.30;99.90;;;;;;5096876;27;20036;-65
2022/08/15 08:39:22;;;;;;;9.45;7.72;;;25.20;99.90;;;;;;5109772;27;20040;-65
2022/08/15 08:41:49;;;;;;;10.38;8.32;;;25.30;99.90;;;;;;5115699;27;20486;-65
2022/08/15 08:44:30;;;;;;;8.63;7.38;;;25.40;99.90;;;;;;5096458;27;20078;-66
2022/08/15 08:47:38;;;;;;;10.55;8.52;;;25.60;99.90;;;;;;5093686;27;20410;-66
2022/08/15 08:50:24;;;;;;;12.02;8.00;;;26.20;99.90;;;;;;5093629;27;20063;-65
2022/08/15 08:53:11;;;;;;;13.95;8.02;;;26.10;99.90;;;;;;5092759;27;20044;-65
2022/08/15 08:55:58;;;;;;;8.45;7.65;;;26.30;99.90;;;;;;5107998;27;20039;-66
2022/08/15 08:58:42;;;;;;;9.00;8.10;;;26.50;99.90;;;;;;5106310;27;20105;-66
2022/08/15 09:01:19;;;;;;;10.25;8.35;;;26.40;99.90;;;;;;5101347;28;20047;-65
2022/08/15 09:03:59;;;;;;;8.90;8.00;;;26.50;99.90;;;;;;5108346;27;20561;-65
2022/08/15 09:06:31;;;;;;;10.02;8.10;;;26.60;99.90;;;;;;5099806;27;20565;-64
2022/08/15 09:09:07;;;;;;;9.00;8.00;;;26.60;99.90;;;;;;5099935;27;20044;-64
2022/08/15 09:11:49;;;;;;;9.05;8.00;;;26.60;99.90;;;;;;5119887;27;20043;-65
2022/08/15 09:14:34;;;;;;;8.63;7.82;;;26.50;99.90;;;;;;5117800;27;20485;-62
2022/08/15 09:17:23;;;;;;;8.73;7.90;;;26.60;99.90;;;;;;5097107;27;20051;-64
2022/08/15 09:20:10;;;;;;;9.30;8.02;;;26.60;99.90;;;;;;5107312;27;20546;-65
2022/08/15 09:22:47;;;;;;;8.32;7.53;;;26.60;99.90;;;;;;5113556;27;20043;-64
2022/08/15 09:25:20;;;;;;;8.20;7.40;;;26.80;99.90;;;;;;5113876;27;20142;-64
2022/08/15 09:28:29;;;;;;;8.57;7.88;;;26.70;99.90;;;;;;5118189;27;20047;-65
2022/08/15 09:31:23;;;;;;;8.80;8.00;;;26.60;99.90;;;;;;5103886;27;20060;-68
2022/08/15 09:34:02;;;;;;;8.57;7.77;;;26.50;99.90;;;;;;5119934;27;20039;-65
2022/08/15 09:36:37;;;;;;;8.68;7.80;;;26.60;99.90;;;;;;5112045;27;20340;-65
2022/08/15 09:39:35;;;;;;;9.65;8.25;;;26.60;99.90;;;;;;5094793;27;20402;-65
2022/08/15 09:42:18;;;;;;;8.70;7.95;;;26.60;99.90;;;;;;5099579;27;20070;-65
2022/08/15 09:45:12;;;;;;;9.48;8.05;;;26.60;99.90;;;;;;5102027;27;20051;-64
2022/08/15 09:48:14;;;;;;;9.48;8.30;;;26.80;99.90;;;;;;5100105;27;20371;-64
2022/08/15 09:51:04;;;;;;;11.23;8.25;;;26.80;99.90;;;;;;5114842;27;20039;-63
2022/08/15 09:54:05;;;;;;;9.82;8.52;;;26.80;99.90;;;;;;5111638;27;20043;-65
2022/08/15 09:57:26;;;;;;;10.68;7.78;;;26.90;99.90;;;;;;5091525;27;20520;-65
2022/08/15 10:00:17;;;;;;;10.60;8.55;;;27.00;99.90;;;;;;5096700;27;20084;-66
2022/08/15 10:02:51;;;;;;;10.23;8.32;;;26.90;99.90;;;;;;5111353;27;20040;-64
2022/08/15 10:05:59;;;;;;;11.63;8.65;;;27.30;99.90;;;;;;5101615;28;20040;-65
2022/08/15 10:08:52;;;;;;;10.70;8.10;;;27.70;99.90;;;;;;5116245;27;20047;-63
2022/08/15 10:11:38;;;;;;;12.70;7.85;;;28.20;99.90;;;;;;5107755;27;20131;-64
2022/08/15 10:14:46;;;;;;;9.10;8.30;;;28.50;99.90;;;;;;5112151;27;20516;-65
2022/08/15 10:17:34;;;;;;;8.23;7.53;;;28.50;99.90;;;;;;5099410;28;20040;-65
2022/08/15 10:20:18;;;;;;;9.02;8.10;;;28.50;99.90;;;;;;5109786;28;20047;-67
2022/08/15 10:23:07;;;;;;;8.50;7.70;;;28.60;99.90;;;;;;5115741;27;20053;-63
2022/08/15 10:25:38;;;;;;;8.10;7.32;;;28.80;99.90;;;;;;5102587;27;20105;-64
2022/08/15 10:28:09;;;;;;;7.97;7.28;;;28.80;99.90;;;;;;5103077;27;20413;-63
2022/08/15 10:31:02;;;;;;;8.20;7.40;;;29.10;99.90;;;;;;5114539;27;20039;-63
2022/08/15 10:33:33;;;;;;;7.97;7.28;;;29.10;99.90;;;;;;5111899;27;20517;-64
2022/08/15 10:36:14;;;;;;;8.75;7.95;;;29.30;99.90;;;;;;5106694;28;20131;-63
2022/08/15 10:39:02;;;;;;;9.90;7.65;;;29.00;99.90;;;;;;5120484;28;20040;-63
2022/08/15 10:41:53;;;;;;;8.38;7.45;;;28.80;99.90;;;;;;5120430;28;20562;-64
2022/08/15 10:44:32;;;;;;;8.90;8.00;;;28.50;99.90;;;;;;5115321;27;20125;-65
2022/08/15 10:47:59;;;;;;;11.15;7.20;;;29.10;99.90;;;;;;5106949;28;20044;-64
2022/08/15 10:51:02;;;;;;;7.65;6.90;;;29.70;99.90;;;;;;5058994;28;20184;-64
2022/08/15 10:53:48;;;;;;;7.05;6.35;;;29.90;99.90;;;;;;5059328;28;20053;-65
2022/08/15 10:56:24;;;;;;;6.93;6.22;;;29.90;99.90;;;;;;5047083;28;20560;-65
2022/08/15 10:59:18;;;;;;;6.80;6.20;;;29.30;99.90;;;;;;5057652;28;20043;-64
2022/08/15 11:01:48;;;;;;;6.88;6.10;;;29.00;99.90;;;;;;5040304;28;20041;-65
2022/08/15 11:04:31;;;;;;;8.90;6.55;;;29.00;99.90;;;;;;5045059;28;20048;-64
2022/08/15 11:07:27;;;;;;;7.13;5.88;;;29.40;99.90;;;;;;5032769;28;20496;-64
2022/08/15 11:09:59;;;;;;;7.00;6.40;;;29.60;99.90;;;;;;5047197;28;20530;-66
2022/08/15 11:12:34;;;;;;;7.13;6.53;;;28.90;99.90;;;;;;5045902;28;20704;-65
2022/08/15 11:15:23;;;;;;;7.00;6.30;;;28.60;99.90;;;;;;5023515;28;20504;-65
2022/08/15 11:18:03;;;;;;;7.57;6.72;;;28.50;99.90;;;;;;5042906;28;20046;-65
2022/08/15 11:20:52;;;;;;;6.63;6.07;;;28.90;99.90;;;;;;5053462;28;20143;-65
2022/08/15 11:23:31;;;;;;;;;;;29.30;99.90;;;;;;5107586;27;20232;-66
2022/08/15 11:26:00;;;;;;;8.82;6.25;;;29.70;99.50;;;;;;5108209;27;19948;-64
2022/08/15 11:28:29;;;;;;;7.03;6.40;;;29.70;99.30;;;;;;5102284;27;20139;-64
2022/08/15 11:31:19;;;;;;;8.23;6.15;;;29.70;99.60;;;;;;5097290;27;20035;-65
2022/08/15 11:33:49;;;;;;;7.10;6.40;;;30.00;99.20;;;;;;5095891;27;20103;-63
2022/08/15 11:36:25;;;;;;;8.45;6.22;;;30.10;98.30;;;;;;5095670;27;20130;-64
2022/08/15 11:39:13;;;;;;;6.82;6.20;;;30.20;97.90;;;;;;5102534;27;20047;-64
2022/08/15 11:41:52;;;;;;;6.40;5.80;;;30.00;98.20;;;;;;5103151;27;20039;-65
2022/08/15 11:44:24;;;;;;;7.10;6.40;;;29.70;98.40;;;;;;5097340;27;20062;-63
2022/08/15 11:46:53;;;;;;;7.55;6.50;;;29.60;98.20;;;;;;5094948;27;20127;-64
2022/08/15 11:49:29;;;;;;;6.65;5.90;;;29.50;97.90;;;;;;5099666;27;20413;-63
2022/08/15 11:52:06;;;;;;;7.63;6.30;;;29.70;97.30;;;;;;5103703;27;20161;-64
2022/08/15 11:55:12;;;;;;;8.75;6.40;;;29.60;97.80;;;;;;5095186;27;20036;-64
2022/08/15 11:57:48;;;;;;;7.30;6.18;;;29.10;98.70;;;;;;5098903;27;20491;-64
2022/08/15 12:00:22;;;;;;;6.72;6.00;;;29.30;98.70;;;;;;5096568;27;20044;-63
2022/08/15 12:02:55;;;;;;;6.80;6.20;;;29.50;98.60;;;;;;5095830;27;20044;-63
2022/08/15 12:05:43;;;;;;;7.88;6.30;;;29.50;98.60;;;;;;5096570;27;20032;-65
2022/08/15 12:08:32;;;;;;;7.28;6.22;;;29.00;99.50;;;;;;5097617;27;20040;-64
2022/08/15 12:11:14;;;;;;;8.13;6.20;;;29.00;99.60;;;;;;5099717;27;20517;-64
2022/08/15 12:14:04;;;;;;;7.18;6.00;;;28.90;99.50;;;;;;5100487;27;20155;-65
2022/08/15 12:16:54;;;;;;;7.13;5.95;;;29.40;98.40;;;;;;5116330;27;20152;-63
2022/08/15 12:19:43;;;;;;;8.63;6.50;;;30.30;98.00;;;;;;5091769;27;20549;-64
2022/08/15 12:22:33;;;;;;;8.38;5.78;;;31.30;97.10;;;;;;5096364;27;20040;-64
2022/08/15 12:25:22;;;;;;;5.97;5.25;;;32.30;95.70;;;;;;5095073;27;20028;-64
2022/08/15 12:28:09;;;;;;;7.10;6.60;;;33.10;91.90;;;;;;5102722;27;20035;-64
2022/08/15 12:31:14;;;;;;;7.15;6.47;;;32.90;90.90;;;;;;5097325;27;20042;-64
2022/08/15 12:33:45;;;;;;;7.38;6.30;;;32.50;91.10;;;;;;5094631;27;20098;-64
2022/08/15 12:36:19;;;;;;;7.07;6.10;;;32.90;91.60;;;;;;5094848;28;20341;-63
2022/08/15 12:39:07;;;;;;;6.60;5.82;;;33.40;90.20;;;;;;5096091;27;20463;-63
2022/08/15 12:41:39;;;;;;;6.75;6.10;;;34.30;87.00;;;;;;5095185;27;20067;-67
2022/08/15 12:44:31;;;;;;;6.57;5.93;;;34.80;86.20;;;;;;5098303;27;20149;-67
2022/08/15 12:47:00;;;;;;;7.70;7.10;;;35.00;83.20;;;;;;5116776;27;20044;-68
2022/08/15 12:49:29;;;;;;;7.88;6.50;;;34.00;84.00;;;;;;5103004;27;20071;-67
2022/08/15 12:51:58;;;;;;;8.50;6.68;;;32.80;86.90;;;;;;5109902;27;20044;-66
2022/08/15 12:54:26;;;;;;;7.32;6.82;;;31.60;89.00;;;;;;5112516;27;20485;-67
2022/08/15 12:56:53;;;;;;;8.15;6.93;;;31.20;90.10;;;;;;5115895;27;20458;-65
2022/08/15 12:59:37;;;;;;;7.10;6.40;;;31.40;90.40;;;;;;5103837;27;20054;-66
2022/08/15 13:02:11;;;;;;;8.60;6.88;;;32.10;89.60;;;;;;5117241;27;20635;-65
2022/08/15 13:04:58;;;;;;;7.23;6.63;;;33.40;87.80;;;;;;5102366;27;20465;-66
2022/08/15 13:07:26;;;;;;;10.13;7.20;;;33.20;86.10;;;;;;5099295;27;20044;-66
2022/08/15 13:10:17;;;;;;;8.93;6.35;;;32.20;86.50;;;;;;5112048;27;20067;-67
2022/08/15 13:13:05;;;;;;;7.35;6.68;;;30.90;89.20;;;;;;5095130;27;20498;-66
2022/08/15 13:15:32;;;;;;;8.23;6.80;;;30.60;90.60;;;;;;5108398;27;20104;-67
2022/08/15 13:18:00;;;;;;;9.20;6.85;;;29.90;91.40;;;;;;5114073;27;20405;-67
2022/08/15 13:23:40;;;;;;;10.63;6.72;;;31.50;90.20;;;;;;5100072;27;20031;-66
2022/08/15 13:26:28;;;;;;;10.88;6.55;;;32.70;87.80;;;;;;5120069;27;20134;-68
2022/08/15 13:29:00;;;;;;;6.30;5.75;;;33.40;84.30;;;;;;5120325;27;20663;-67
2022/08/15 13:31:28;;;;;;;7.25;6.32;;;33.80;83.90;;;;;;5118946;27;20040;-67
2022/08/15 13:33:58;;;;;;;7.20;6.40;;;34.70;81.90;;;;;;5103532;27;20070;-67
2022/08/15 13:36:28;;;;;;;7.22;6.22;;;34.70;81.10;;;;;;5124385;27;20047;-67
2022/08/15 13:39:02;;;;;;;6.10;5.60;;;35.10;80.10;;;;;;5103087;27;20039;-66
2022/08/15 13:41:41;;;;;;;6.85;6.10;;;34.20;80.30;;;;;;5110225;27;20543;-67
2022/08/15 13:44:31;;;;;;;6.43;5.80;;;35.30;80.10;;;;;;5095865;27;20110;-67
2022/08/15 13:46:59;;;;;;;7.30;5.88;;;35.10;76.30;;;;;;5100045;27;20105;-66
2022/08/15 13:49:29;;;;;;;7.95;7.35;;;36.40;74.10;;;;;;5115114;27;20097;-66
2022/08/15 13:51:58;;;;;;;8.57;6.78;;;38.10;72.10;;;;;;5105390;27;20418;-67
2022/08/15 13:54:46;;;;;;;6.75;6.18;;;39.40;67.30;;;;;;5108817;27;20036;-65